Time;durP1;ratioP1;P1;durP2;ratioP2;P2;SDS_P1;SDS_P2;PMS_P1;PMS_P2;Temp;Humidity;BMP_temperature;BMP_pressure;BME280_temperature;BME280_humidity;BME280_pressure;Samples;Min_cycle;Max_cycle;Signal;HPM_P1;HPM_P2
2022/05/24 14:54:59;;;;;;;6.00;5.70;;;;;;;21.82;75.32;91927.50;5042683;27;20553;-79
2022/05/24 14:57:26;;;;;;;6.18;5.88;;;;;;;22.23;75.33;92018.72;5040433;28;20484;-79
2022/05/24 14:59:53;;;;;;;6.00;5.13;;;;;;;22.04;75.12;91985.44;5036430;28;20562;-77
2022/05/24 15:02:21;;;;;;;5.63;5.43;;;;;;;22.10;76.30;91984.84;5032753;28;20310;-76
2022/05/24 15:04:49;;;;;;;5.78;5.50;;;;;;;22.41;74.94;92036.72;5032050;28;20536;-77
2022/05/24 15:15:37;;;;;;;6.10;5.70;;;;;;;22.22;79.26;91986.22;5036003;28;20216;-78
2022/05/24 15:18:04;;;;;;;6.50;6.00;;;;;;;22.34;80.52;91999.66;5043600;28;20579;-77
2022/05/24 15:20:32;;;;;;;6.07;5.68;;;;;;;22.07;77.57;91962.00;5034037;28;20558;-78
2022/05/24 15:23:04;;;;;;;5.90;5.50;;;;;;;21.95;75.96;91952.06;5030103;28;20589;-79
2022/05/24 15:25:39;;;;;;;5.95;5.63;;;;;;;21.69;76.06;91921.16;5030832;28;20198;-77
2022/05/24 15:28:09;;;;;;;6.07;5.47;;;;;;;21.67;76.81;91943.59;5036557;28;20570;-77
2022/05/24 15:30:37;;;;;;;7.03;6.55;;;;;;;22.00;77.51;92014.19;5033486;28;20582;-77
2022/05/24 15:33:04;;;;;;;7.47;6.78;;;;;;;21.88;78.44;92016.13;5028737;28;20221;-78
2022/05/24 15:35:31;;;;;;;7.20;6.47;;;;;;;21.38;80.38;91966.94;5036263;28;20462;-77
2022/05/24 15:37:59;;;;;;;6.70;6.20;;;;;;;21.50;80.55;92014.63;5034629;28;20556;-76
2022/05/24 15:40:26;;;;;;;6.03;5.72;;;;;;;21.06;80.31;91949.38;5035812;28;20201;-78
2022/05/24 15:42:58;;;;;;;6.38;5.72;;;;;;;21.36;80.83;91982.50;5042132;28;20270;-79
2022/05/24 15:45:26;;;;;;;6.05;5.75;;;;;;;21.20;81.34;91971.22;5031170;28;20601;-77
2022/05/24 15:47:53;;;;;;;6.03;5.63;;;;;;;21.47;81.31;92017.47;5029644;28;20632;-78
2022/05/24 15:50:21;;;;;;;7.68;5.80;;;;;;;21.27;82.38;92005.69;5031433;28;21001;-77
2022/05/24 15:52:49;;;;;;;6.45;5.88;;;;;;;21.25;82.99;92030.69;5030909;28;20535;-77
2022/05/24 15:55:16;;;;;;;5.97;5.68;;;;;;;21.12;83.67;92020.75;5031772;28;20581;-76
2022/05/24 15:57:44;;;;;;;6.32;5.90;;;;;;;21.31;84.41;92046.38;5032797;28;20601;-79
2022/05/24 16:00:16;;;;;;;6.30;6.00;;;;;;;21.24;84.19;92032.47;5031207;28;20579;-78
2022/05/24 16:02:43;;;;;;;6.75;6.40;;;;;;;21.15;84.25;92035.06;5031620;28;20327;-78
2022/05/24 16:10:40;;;;;;;7.03;6.53;;;;;;;21.09;85.52;91988.44;5015813;28;20507;-78
2022/05/24 16:13:12;;;;;;;6.07;5.78;;;;;;;21.37;81.15;92020.09;5017247;28;20241;-76
2022/05/24 16:15:46;;;;;;;6.07;5.75;;;;;;;21.67;79.86;92049.84;5023894;28;20634;-76
2022/05/24 16:18:15;;;;;;;5.90;5.53;;;;;;;21.54;80.04;92021.09;5027106;28;20592;-78
2022/05/24 16:20:46;;;;;;;5.75;5.45;;;;;;;21.40;80.95;91983.03;5018584;28;20593;-77
2022/05/24 16:23:16;;;;;;;6.10;5.80;;;;;;;21.76;80.54;92050.72;5023527;28;20216;-77
2022/05/24 16:25:43;;;;;;;6.25;5.97;;;;;;;21.72;81.26;92055.34;5023483;28;20654;-77
2022/05/24 16:28:13;;;;;;;6.72;6.38;;;;;;;21.52;80.58;92043.53;5023569;28;20543;-78
2022/05/24 16:30:43;;;;;;;6.63;6.22;;;;;;;21.59;81.15;92066.91;5023106;28;20215;-77
2022/05/24 16:33:11;;;;;;;8.20;7.22;;;;;;;21.25;80.91;92023.00;5027065;28;20197;-78
2022/05/24 16:35:39;;;;;;;6.90;6.50;;;;;;;21.45;81.07;92071.59;5022049;28;20586;-77
2022/05/24 16:38:07;;;;;;;6.70;6.40;;;;;;;21.30;81.48;92062.72;5026204;28;20318;-77
2022/05/24 16:40:34;;;;;;;7.25;6.85;;;;;;;21.50;80.77;92110.53;5019937;28;20650;-77
2022/05/24 16:43:01;;;;;;;6.78;6.47;;;;;;;21.23;80.47;92079.69;5025381;28;20569;-77
2022/05/24 16:45:28;;;;;;;6.57;6.28;;;;;;;21.41;81.34;92131.94;5026172;28;20197;-77
2022/05/24 16:47:57;;;;;;;6.40;6.10;;;;;;;21.28;82.81;92130.66;5023263;28;20664;-77
2022/05/24 16:50:30;;;;;;;6.50;6.00;;;;;;;20.69;83.31;92040.06;5024589;28;20562;-78
2022/05/24 16:53:06;;;;;;;7.00;6.60;;;;;;;20.71;84.03;92057.91;5023465;28;20680;-77
2022/05/24 17:01:08;;;;;;;7.22;6.80;;;;;;;20.79;85.15;92090.59;5012253;28;20643;-75
2022/05/24 17:03:37;;;;;;;7.63;7.22;;;;;;;20.99;84.63;92128.94;5016577;28;20644;-74
2022/05/24 17:06:05;;;;;;;6.60;6.13;;;;;;;20.74;85.36;92097.88;5017311;28;20559;-78
2022/05/24 17:08:32;;;;;;;6.90;6.45;;;;;;;20.94;85.47;92131.09;5016613;28;20475;-77
2022/05/24 17:11:00;;;;;;;7.07;6.68;;;;;;;20.55;86.42;92085.91;5016456;28;20233;-76
2022/05/24 17:13:27;;;;;;;6.65;6.15;;;;;;;20.34;87.63;92055.25;5015796;28;20558;-77
2022/05/24 17:15:54;;;;;;;7.10;6.72;;;;;;;20.30;87.12;92061.56;5017780;28;20640;-77
2022/05/24 17:18:22;;;;;;;8.45;6.68;;;;;;;20.40;87.17;92082.09;5015810;28;20201;-77
2022/05/24 17:20:50;;;;;;;6.47;6.07;;;;;;;20.66;87.24;92130.19;5016166;28;20220;-77
2022/05/24 17:23:18;;;;;;;6.43;6.13;;;;;;;20.31;87.19;92086.28;5016465;28;20198;-78
2022/05/24 17:25:45;;;;;;;8.82;8.23;;;;;;;20.44;87.40;92127.09;5016921;28;20559;-79
2022/05/24 17:28:12;;;;;;;7.20;6.82;;;;;;;20.56;87.54;92149.91;5017155;28;20464;-80
2022/05/24 17:30:42;;;;;;;6.97;6.57;;;;;;;20.44;87.37;92134.81;5016439;28;20499;-79
2022/05/24 17:33:12;;;;;;;7.00;6.63;;;;;;;20.54;88.28;92148.44;5016523;28;20637;-79
2022/05/24 17:35:41;;;;;;;7.72;7.22;;;;;;;20.58;88.57;92158.28;5015987;28;20579;-80
2022/05/24 17:38:11;;;;;;;8.30;7.70;;;;;;;20.57;88.55;92156.66;5016991;28;20217;-80
2022/05/24 17:40:40;;;;;;;10.23;8.82;;;;;;;20.54;88.13;92154.38;5017265;28;20523;-80
2022/05/24 17:43:09;;;;;;;11.18;9.10;;;;;;;20.30;88.68;92135.97;5015527;28;20206;-79
2022/05/24 17:45:39;;;;;;;18.27;13.10;;;;;;;20.44;88.80;92184.38;5014601;28;20513;-80
2022/05/24 17:48:07;;;;;;;10.73;9.77;;;;;;;19.72;89.08;92101.72;5015224;28;20551;-80
2022/05/24 17:50:36;;;;;;;9.63;8.93;;;;;;;19.72;90.64;92120.47;5015238;28;20536;-79
2022/05/24 17:53:03;;;;;;;9.70;8.90;;;;;;;20.18;91.02;92193.47;5014980;28;20252;-80
2022/05/24 17:55:35;;;;;;;9.18;8.57;;;;;;;19.67;91.07;92106.44;5015015;28;20291;-80
2022/05/24 17:58:02;;;;;;;10.48;9.48;;;;;;;19.80;91.81;92138.59;5015311;28;20602;-79
2022/05/24 18:00:30;;;;;;;11.55;10.20;;;;;;;19.59;91.56;92111.44;5016080;28;20559;-80
2022/05/24 18:02:57;;;;;;;10.95;9.60;;;;;;;19.83;91.07;92153.69;5016195;28;20578;-80
2022/05/24 18:05:24;;;;;;;11.07;10.07;;;;;;;19.94;90.99;92172.50;5015940;28;20570;-81
2022/05/24 18:07:51;;;;;;;10.30;9.55;;;;;;;20.05;91.93;92210.88;5015144;28;20575;-79
2022/05/24 18:10:19;;;;;;;9.75;9.05;;;;;;;20.02;91.55;92214.50;5014601;28;20476;-79
2022/05/24 18:12:47;;;;;;;8.93;8.13;;;;;;;20.01;91.99;92220.56;5014759;28;20475;-79
2022/05/24 18:15:16;;;;;;;9.27;8.50;;;;;;;19.61;92.55;92164.16;5014442;28;20495;-79
2022/05/24 18:17:44;;;;;;;8.32;7.60;;;;;;;19.74;92.25;92185.25;5014108;28;20309;-79
2022/05/24 18:20:13;;;;;;;7.55;7.05;;;;;;;19.64;92.92;92191.28;5013555;28;20575;-79
2022/05/24 18:22:45;;;;;;;7.93;7.32;;;;;;;19.54;92.79;92170.75;5015252;28;20568;-79
2022/05/24 18:25:18;;;;;;;8.35;7.65;;;;;;;19.64;93.11;92194.66;5015766;28;20481;-79
2022/05/24 18:33:28;;;;;;;8.30;7.80;;;;;;;19.65;93.42;92231.38;5016080;28;20564;-80
2022/05/24 18:36:07;;;;;;;8.57;8.07;;;;;;;19.07;93.96;92169.53;5027190;28;20197;-80
2022/05/24 18:38:34;;;;;;;8.18;7.60;;;;;;;18.81;95.20;92156.31;5016123;28;20193;-78
2022/05/24 18:41:02;;;;;;;8.18;7.68;;;;;;;19.22;95.18;92224.63;5015540;28;20501;-77
2022/05/24 18:43:31;;;;;;;7.47;6.97;;;;;;;19.09;94.94;92200.16;5015591;28;20518;-77
2022/05/24 18:46:01;;;;;;;9.70;8.25;;;;;;;18.70;95.71;92170.94;5014202;28;20539;-78
2022/05/24 18:48:28;;;;;;;8.57;8.00;;;;;;;18.61;95.95;92162.22;5013495;28;20280;-78
2022/05/24 18:50:55;;;;;;;7.55;7.10;;;;;;;18.84;95.79;92212.38;5013527;28;20606;-79
2022/05/24 18:53:22;;;;;;;8.35;7.85;;;;;;;18.48;96.31;92176.91;5014130;28;20238;-78
2022/05/24 18:55:51;;;;;;;9.07;7.97;;;;;;;18.30;96.28;92160.47;5013478;28;20642;-78
2022/05/24 18:58:18;;;;;;;8.57;7.97;;;;;;;18.26;96.53;92146.28;5015517;28;20605;-78
2022/05/24 19:00:48;;;;;;;8.70;7.90;;;;;;;18.41;96.41;92181.72;5014892;28;20497;-78
2022/05/24 19:03:15;;;;;;;8.95;8.13;;;;;;;18.57;97.08;92219.69;5015187;28;20472;-78
2022/05/24 19:05:45;;;;;;;8.48;7.68;;;;;;;18.36;96.29;92188.13;5014811;28;20209;-78
2022/05/24 19:08:13;;;;;;;7.18;6.53;;;;;;;18.27;96.77;92201.63;5014959;28;20590;-78
2022/05/24 19:10:40;;;;;;;7.43;7.03;;;;;;;18.28;97.25;92221.97;5013672;28;20460;-78
2022/05/24 19:13:07;;;;;;;7.07;6.75;;;;;;;18.18;97.32;92218.50;5014010;28;20582;-78
2022/05/24 19:15:34;;;;;;;7.75;7.15;;;;;;;17.85;98.27;92200.69;5015063;28;20500;-77
2022/05/24 19:18:04;;;;;;;9.20;7.28;;;;;;;17.87;99.54;92224.34;5015391;28;20582;-78
2022/05/24 19:20:31;;;;;;;8.40;7.72;;;;;;;17.30;100.00;92154.56;5016852;28;20205;-77
2022/05/24 19:22:58;;;;;;;7.53;6.90;;;;;;;17.24;100.00;92155.03;5015678;28;20533;-78
2022/05/24 19:25:26;;;;;;;7.78;7.28;;;;;;;17.55;100.00;92216.56;5016447;28;20482;-78
2022/05/24 19:27:54;;;;;;;7.53;7.10;;;;;;;17.49;100.00;92222.94;5017357;28;20554;-77
2022/05/24 19:30:22;;;;;;;9.50;8.68;;;;;;;17.60;100.00;92242.59;5018801;28;20334;-78
2022/05/24 19:32:49;;;;;;;8.40;7.82;;;;;;;17.14;100.00;92176.25;5019469;28;20532;-77
2022/05/24 19:35:18;;;;;;;6.93;6.63;;;;;;;17.24;100.00;92200.97;5019928;28;20245;-78
2022/05/24 19:37:46;;;;;;;6.30;6.00;;;;;;;16.99;100.00;92176.47;5031871;28;20537;-76
2022/05/24 19:42:59;;;;;;;5.90;5.60;;;;;;;17.35;100.00;92221.41;5030795;28;20505;-76
2022/05/24 19:45:26;;;;;;;6.90;6.47;;;;;;;17.56;100.00;92247.09;5029530;28;20194;-76
2022/05/24 19:47:54;;;;;;;6.80;6.38;;;;;;;17.28;99.47;92211.78;5030660;28;20210;-76
2022/05/24 19:50:23;;;;;;;7.43;6.68;;;;;;;17.44;99.22;92225.03;5027704;28;20487;-75
2022/05/24 19:52:53;;;;;;;7.75;7.15;;;;;;;17.58;99.13;92258.00;5027398;28;20588;-77
2022/05/24 19:55:23;;;;;;;6.32;5.95;;;;;;;17.24;98.92;92215.47;5023524;28;20660;-75
2022/05/24 19:57:50;;;;;;;6.65;6.25;;;;;;;17.24;99.37;92249.47;5019718;28;20625;-76
2022/05/24 20:00:18;;;;;;;7.38;6.80;;;;;;;16.91;100.00;92206.03;5018263;28;20229;-76
2022/05/24 20:02:45;;;;;;;7.80;7.20;;;;;;;16.83;100.00;92185.38;5019456;28;20589;-76
2022/05/24 20:05:14;;;;;;;7.22;6.82;;;;;;;17.24;100.00;92264.81;5017003;28;20191;-76
2022/05/24 20:07:47;;;;;;;7.00;6.38;;;;;;;17.28;100.00;92267.97;5016107;28;20598;-76
2022/05/24 20:10:15;;;;;;;7.25;6.82;;;;;;;17.31;100.00;92270.28;5017271;28;20540;-76
2022/05/24 20:12:42;;;;;;;7.40;6.97;;;;;;;17.41;100.00;92284.81;5018003;28;20527;-76
2022/05/24 20:15:11;;;;;;;7.53;6.80;;;;;;;16.96;100.00;92230.28;5018554;28;20508;-76
2022/05/24 20:17:38;;;;;;;7.05;6.55;;;;;;;17.00;100.00;92228.34;5017783;28;20450;-76
2022/05/24 20:20:06;;;;;;;6.70;6.30;;;;;;;17.34;100.00;92273.44;5017650;28;20497;-76
2022/05/24 20:22:33;;;;;;;6.57;6.07;;;;;;;17.47;99.54;92283.53;5017961;28;20582;-76
2022/05/24 20:25:02;;;;;;;6.47;6.00;;;;;;;17.28;98.77;92240.69;5017973;28;20468;-76
2022/05/24 20:27:29;;;;;;;6.03;5.75;;;;;;;17.52;98.92;92267.88;5017740;28;20194;-77
2022/05/24 20:29:57;;;;;;;7.03;6.63;;;;;;;17.28;98.07;92214.34;5018462;28;20583;-76
2022/05/24 20:32:28;;;;;;;6.80;6.30;;;;;;;17.38;99.56;92249.28;5017324;28;20463;-75
2022/05/24 20:34:56;;;;;;;6.57;6.22;;;;;;;16.98;99.75;92186.78;5018078;28;20568;-76
2022/05/24 20:37:26;;;;;;;6.88;6.38;;;;;;;17.23;98.77;92196.81;5017638;28;20217;-75
2022/05/24 20:39:59;;;;;;;7.20;6.60;;;;;;;17.62;98.41;92240.75;5016987;28;20194;-75
2022/05/24 20:42:28;;;;;;;7.22;6.53;;;;;;;17.41;99.25;92212.47;5017818;28;20446;-75
2022/05/24 20:44:56;;;;;;;7.93;7.10;;;;;;;17.53;98.91;92229.44;5017041;28;20559;-75
2022/05/24 20:47:23;;;;;;;7.53;7.05;;;;;;;17.64;99.05;92241.44;5017985;28;20527;-75
2022/05/24 20:49:50;;;;;;;7.15;6.55;;;;;;;17.35;98.82;92184.88;5017123;28;20633;-76
2022/05/24 20:52:18;;;;;;;7.75;7.13;;;;;;;17.22;99.18;92154.34;5017236;28;20652;-76
2022/05/24 20:54:45;;;;;;;6.68;6.38;;;;;;;17.55;98.52;92211.44;5016846;28;20618;-75
2022/05/24 20:57:12;;;;;;;6.68;6.32;;;;;;;17.50;98.17;92201.59;5017909;28;20476;-75
2022/05/24 20:59:41;;;;;;;8.60;7.80;;;;;;;17.61;98.75;92234.00;5016683;28;20220;-75
2022/05/24 21:02:09;;;;;;;7.93;7.53;;;;;;;17.17;99.36;92193.91;5017424;28;20463;-76
2022/05/24 21:04:37;;;;;;;6.88;6.32;;;;;;;17.02;100.00;92220.53;5017113;28;20566;-76
2022/05/24 21:07:06;;;;;;;5.82;5.57;;;;;;;17.25;100.00;92245.19;5018366;28;20594;-78
2022/05/24 21:09:35;;;;;;;7.00;6.55;;;;;;;17.05;100.00;92216.03;5017225;28;20255;-78
2022/05/24 21:12:02;;;;;;;6.97;6.50;;;;;;;17.02;100.00;92207.78;5017371;28;20571;-77
2022/05/24 21:14:29;;;;;;;6.72;6.30;;;;;;;17.21;100.00;92224.19;5018092;28;20195;-78
2022/05/24 21:16:57;;;;;;;7.18;6.60;;;;;;;17.31;100.00;92237.91;5017298;28;20547;-78
2022/05/24 21:19:24;;;;;;;7.22;6.75;;;;;;;17.19;98.96;92184.38;5016654;28;20547;-78
2022/05/24 21:21:51;;;;;;;7.43;7.03;;;;;;;17.70;98.25;92267.34;5016853;28;20559;-77
2022/05/24 21:24:20;;;;;;;7.18;6.78;;;;;;;17.69;98.35;92270.81;5017313;28;20465;-77
2022/05/24 21:29:36;;;;;;;6.88;6.47;;;;;;;16.94;99.56;92187.94;5017330;28;20469;-77
2022/05/24 21:32:04;;;;;;;7.18;6.78;;;;;;;17.64;98.69;92270.34;5016768;28;20190;-78
2022/05/24 21:34:31;;;;;;;6.90;6.40;;;;;;;17.28;100.00;92261.13;5017003;28;20521;-78
2022/05/24 21:37:01;;;;;;;6.97;6.38;;;;;;;16.96;100.00;92230.28;5016416;28;20551;-78
2022/05/24 21:39:29;;;;;;;7.38;6.88;;;;;;;17.38;100.00;92269.72;5017570;28;20221;-78
2022/05/24 21:41:57;;;;;;;7.20;6.90;;;;;;;17.10;100.00;92236.13;5016450;28;20567;-78
2022/05/24 21:44:50;;;;;;;7.47;6.88;;;;;;;17.29;100.00;92267.84;5016267;28;20471;-78
2022/05/24 21:47:17;;;;;;;7.70;7.18;;;;;;;16.75;100.00;92228.47;5015256;28;20617;-78
2022/05/24 21:49:46;;;;;;;6.65;6.25;;;;;;;16.88;100.00;92237.69;5015597;28;20449;-77
2022/05/24 21:52:14;;;;;;;6.53;6.18;;;;;;;16.89;100.00;92261.47;5014867;28;20606;-77
2022/05/24 21:54:43;;;;;;;7.15;6.53;;;;;;;16.51;100.00;92187.66;5017382;28;20525;-78
2022/05/24 21:57:10;;;;;;;6.93;6.55;;;;;;;16.77;100.00;92250.41;5016569;28;20636;-77
2022/05/24 21:59:43;;;;;;;7.18;6.60;;;;;;;16.98;100.00;92278.66;5015828;28;20578;-77
2022/05/24 22:02:11;;;;;;;6.95;6.07;;;;;;;16.89;100.00;92252.09;5017327;28;20530;-78
2022/05/24 22:04:38;;;;;;;6.88;6.47;;;;;;;16.63;100.00;92191.09;5015428;28;20259;-77
2022/05/24 22:07:09;;;;;;;7.05;6.40;;;;;;;16.56;100.00;92188.19;5016214;28;20559;-77
2022/05/24 22:09:37;;;;;;;7.10;6.60;;;;;;;16.46;100.00;92188.00;5015692;28;20588;-77
2022/05/24 22:12:07;;;;;;;6.45;5.90;;;;;;;16.68;100.00;92225.56;5016218;28;20525;-78
2022/05/24 22:14:37;;;;;;;5.95;5.47;;;;;;;16.77;100.00;92237.66;5016698;28;20194;-77
2022/05/24 22:17:04;;;;;;;6.40;6.00;;;;;;;16.89;100.00;92264.84;5016373;28;20438;-78
2022/05/24 22:19:32;;;;;;;6.28;5.95;;;;;;;16.43;100.00;92175.50;5016565;28;20554;-77
2022/05/24 22:21:59;;;;;;;6.75;6.18;;;;;;;16.42;100.00;92173.03;5017139;28;20579;-77
2022/05/24 22:24:26;;;;;;;6.00;5.45;;;;;;;16.81;100.00;92221.19;5015777;28;20631;-77
2022/05/24 22:26:54;;;;;;;6.53;6.03;;;;;;;17.11;100.00;92264.09;5016010;28;20574;-77
2022/05/24 22:29:22;;;;;;;6.20;5.70;;;;;;;17.24;100.00;92259.69;5017128;28;20252;-77
2022/05/24 22:31:50;;;;;;;6.97;6.47;;;;;;;17.16;100.00;92245.88;5015901;28;20553;-77
2022/05/24 22:34:18;;;;;;;6.25;5.85;;;;;;;16.81;100.00;92194.88;5015428;28;20485;-77
2022/05/24 22:36:45;;;;;;;8.40;7.60;;;;;;;16.81;100.00;92182.13;5015351;28;20595;-77
2022/05/24 22:39:13;;;;;;;8.05;7.55;;;;;;;16.97;100.00;92200.47;5015638;28;20475;-77
2022/05/24 22:41:40;;;;;;;7.63;6.90;;;;;;;16.67;100.00;92179.78;5015491;28;20589;-77
2022/05/24 22:44:07;;;;;;;6.40;6.07;;;;;;;17.06;100.00;92257.69;5015973;28;20474;-77
2022/05/24 22:46:37;;;;;;;7.28;6.78;;;;;;;17.07;100.00;92239.69;5015511;28;20549;-77
2022/05/24 22:49:04;;;;;;;7.07;6.57;;;;;;;17.25;100.00;92256.22;5016532;28;20186;-77
2022/05/24 22:51:31;;;;;;;7.43;6.97;;;;;;;17.07;100.00;92232.03;5015835;28;20476;-77
2022/05/24 22:53:59;;;;;;;8.43;7.72;;;;;;;16.91;99.89;92203.47;5014650;28;20606;-77
2022/05/24 22:56:26;;;;;;;9.55;8.80;;;;;;;17.28;99.89;92265.41;5015466;28;20285;-77
2022/05/24 22:58:55;;;;;;;9.88;9.18;;;;;;;16.93;100.00;92227.16;5015538;28;20544;-77
2022/05/24 23:01:24;;;;;;;9.90;9.18;;;;;;;17.11;100.00;92247.97;5015401;28;20566;-77
2022/05/24 23:03:53;;;;;;;9.82;8.93;;;;;;;17.14;100.00;92268.16;5015379;28;20563;-77
2022/05/24 23:06:21;;;;;;;9.05;8.43;;;;;;;16.77;100.00;92214.72;5016746;28;20547;-77
2022/05/24 23:08:49;;;;;;;10.35;9.20;;;;;;;16.74;100.00;92224.28;5014848;28;20603;-77
2022/05/24 23:11:16;;;;;;;10.05;9.10;;;;;;;17.14;100.00;92280.91;5015530;28;20578;-77
2022/05/24 23:13:43;;;;;;;10.25;9.18;;;;;;;16.51;100.00;92185.94;5015727;28;20364;-77
2022/05/24 23:16:11;;;;;;;12.50;9.25;;;;;;;16.76;100.00;92232.66;5018119;28;20613;-77
2022/05/24 23:18:38;;;;;;;9.50;8.70;;;;;;;16.57;100.00;92208.44;5019293;28;20891;-77
2022/05/24 23:21:07;;;;;;;10.80;9.90;;;;;;;16.75;100.00;92236.94;5018912;28;20620;-77
2022/05/24 23:23:34;;;;;;;10.65;9.65;;;;;;;16.95;100.00;92256.75;5019328;28;20605;-77
2022/05/24 23:26:06;;;;;;;10.68;9.70;;;;;;;16.88;100.00;92262.41;5018803;28;20541;-77
2022/05/24 23:28:33;;;;;;;10.50;9.52;;;;;;;16.50;100.00;92207.28;5018839;28;20555;-77
2022/05/24 23:31:00;;;;;;;11.80;10.68;;;;;;;16.61;100.00;92224.41;5018909;28;20601;-77
2022/05/24 23:33:27;;;;;;;10.48;9.40;;;;;;;16.55;100.00;92215.41;5018712;28;20460;-77
2022/05/24 23:35:54;;;;;;;10.75;9.75;;;;;;;16.44;100.00;92205.16;5018468;28;20646;-77
2022/05/24 23:38:23;;;;;;;8.90;8.20;;;;;;;16.64;100.00;92264.97;5018749;28;20505;-77
2022/05/24 23:40:50;;;;;;;8.38;7.78;;;;;;;16.52;100.00;92248.78;5019312;28;20474;-77
2022/05/24 23:43:19;;;;;;;8.15;7.40;;;;;;;16.80;100.00;92279.97;5019022;28;20607;-77
2022/05/24 23:45:46;;;;;;;8.43;7.72;;;;;;;16.26;100.00;92226.03;5018098;28;20558;-77
2022/05/24 23:48:13;;;;;;;7.80;7.28;;;;;;;16.29;100.00;92233.47;5019961;28;20655;-77
2022/05/24 23:50:41;;;;;;;8.15;7.28;;;;;;;16.37;100.00;92236.31;5018847;28;20481;-77
2022/05/24 23:53:09;;;;;;;11.82;7.53;;;;;;;16.54;100.00;92269.88;5018480;28;20500;-77
2022/05/24 23:55:39;;;;;;;7.63;6.93;;;;;;;16.15;100.00;92219.97;5018230;28;20613;-77
2022/05/24 23:58:06;;;;;;;6.80;6.30;;;;;;;16.49;100.00;92312.75;5018348;28;20581;-77
